sensor_id;sensor_type;location;lat;lon;timestamp;temperature;humidity
8633;DHT22;4354;49.832;10.746;2023-03-31T00:02:03;8.80;99.90
8633;DHT22;4354;49.832;10.746;2023-03-31T00:04:40;8.80;99.90
8633;DHT22;4354;49.832;10.746;2023-03-31T00:07:26;8.80;99.90
8633;DHT22;4354;49.832;10.746;2023-03-31T00:09:53;8.80;99.90
8633;DHT22;4354;49.832;10.746;2023-03-31T00:12:42;8.80;99.90
8633;DHT22;4354;49.832;10.746;2023-03-31T00:15:12;8.80;99.90
8633;DHT22;4354;49.832;10.746;2023-03-31T00:17:41;8.80;99.90
8633;DHT22;4354;49.832;10.746;2023-03-31T00:20:09;8.80;99.90
8633;DHT22;4354;49.832;10.746;2023-03-31T00:22:47;8.80;99.90
8633;DHT22;4354;49.832;10.746;2023-03-31T00:25:25;8.80;99.90
8633;DHT22;4354;49.832;10.746;2023-03-31T00:27:55;8.80;99.90
8633;DHT22;4354;49.832;10.746;2023-03-31T00:30:25;8.80;99.90
8633;DHT22;4354;49.832;10.746;2023-03-31T00:32:52;8.80;99.90
8633;DHT22;4354;49.832;10.746;2023-03-31T00:35:22;8.80;99.90
8633;DHT22;4354;49.832;10.746;2023-03-31T00:37:49;8.70;99.90
8633;DHT22;4354;49.832;10.746;2023-03-31T00:40:16;8.70;99.90
8633;DHT22;4354;49.832;10.746;2023-03-31T00:42:44;8.70;99.90
8633;DHT22;4354;49.832;10.746;2023-03-31T00:47:46;8.80;99.90
8633;DHT22;4354;49.832;10.746;2023-03-31T00:50:25;8.80;99.90
8633;DHT22;4354;49.832;10.746;2023-03-31T00:53:06;8.80;99.90
8633;DHT22;4354;49.832;10.746;2023-03-31T00:55:53;8.80;99.90
8633;DHT22;4354;49.832;10.746;2023-03-31T00:58:22;8.90;99.90
8633;DHT22;4354;49.832;10.746;2023-03-31T01:00:57;8.90;99.90
8633;DHT22;4354;49.832;10.746;2023-03-31T01:03:37;8.90;99.90
8633;DHT22;4354;49.832;10.746;2023-03-31T01:06:05;8.80;99.90
8633;DHT22;4354;49.832;10.746;2023-03-31T01:08:39;8.90;99.90
8633;DHT22;4354;49.832;10.746;2023-03-31T01:11:11;8.90;99.90
8633;DHT22;4354;49.832;10.746;2023-03-31T01:13:40;8.80;99.90
8633;DHT22;4354;49.832;10.746;2023-03-31T01:16:08;8.80;99.90
8633;DHT22;4354;49.832;10.746;2023-03-31T01:18:36;8.80;99.90
8633;DHT22;4354;49.832;10.746;2023-03-31T01:46:45;8.10;99.90
8633;DHT22;4354;49.832;10.746;2023-03-31T01:49:20;8.10;99.90
8633;DHT22;4354;49.832;10.746;2023-03-31T01:55:08;8.10;99.90
8633;DHT22;4354;49.832;10.746;2023-03-31T01:57:40;8.00;99.90
8633;DHT22;4354;49.832;10.746;2023-03-31T02:00:13;8.00;99.90
8633;DHT22;4354;49.832;10.746;2023-03-31T02:02:48;8.00;99.90
8633;DHT22;4354;49.832;10.746;2023-03-31T02:05:19;8.00;99.90
8633;DHT22;4354;49.832;10.746;2023-03-31T02:08:01;8.00;99.90
8633;DHT22;4354;49.832;10.746;2023-03-31T02:10:34;8.00;99.90
8633;DHT22;4354;49.832;10.746;2023-03-31T02:13:02;7.90;99.90
8633;DHT22;4354;49.832;10.746;2023-03-31T02:15:35;7.90;99.90
8633;DHT22;4354;49.832;10.746;2023-03-31T02:18:06;7.90;99.90
8633;DHT22;4354;49.832;10.746;2023-03-31T02:20:42;8.00;99.90
8633;DHT22;4354;49.832;10.746;2023-03-31T02:23:17;7.90;99.90
8633;DHT22;4354;49.832;10.746;2023-03-31T02:25:50;7.90;99.90
8633;DHT22;4354;49.832;10.746;2023-03-31T02:28:24;7.90;99.90
8633;DHT22;4354;49.832;10.746;2023-03-31T02:31:07;7.90;99.90
8633;DHT22;4354;49.832;10.746;2023-03-31T02:33:47;8.00;99.90
8633;DHT22;4354;49.832;10.746;2023-03-31T02:36:17;8.00;99.90
8633;DHT22;4354;49.832;10.746;2023-03-31T02:38:53;8.00;99.90
8633;DHT22;4354;49.832;10.746;2023-03-31T02:41:29;8.00;99.90
8633;DHT22;4354;49.832;10.746;2023-03-31T02:43:59;8.00;99.90
8633;DHT22;4354;49.832;10.746;2023-03-31T02:46:27;8.00;99.90
8633;DHT22;4354;49.832;10.746;2023-03-31T02:48:58;8.10;99.90
8633;DHT22;4354;49.832;10.746;2023-03-31T03:03:20;8.30;99.90
8633;DHT22;4354;49.832;10.746;2023-03-31T03:11:18;8.30;99.90
8633;DHT22;4354;49.832;10.746;2023-03-31T03:16:42;8.40;99.90
8633;DHT22;4354;49.832;10.746;2023-03-31T03:19:22;8.40;99.90
8633;DHT22;4354;49.832;10.746;2023-03-31T03:21:52;8.40;99.90
8633;DHT22;4354;49.832;10.746;2023-03-31T03:24:19;8.40;99.90
8633;DHT22;4354;49.832;10.746;2023-03-31T03:26:50;8.40;99.90
8633;DHT22;4354;49.832;10.746;2023-03-31T03:29:18;8.40;99.90
8633;DHT22;4354;49.832;10.746;2023-03-31T03:31:50;8.50;99.90
8633;DHT22;4354;49.832;10.746;2023-03-31T03:34:20;8.40;99.90
8633;DHT22;4354;49.832;10.746;2023-03-31T03:36:47;8.40;99.90
8633;DHT22;4354;49.832;10.746;2023-03-31T03:39:17;8.50;99.90
8633;DHT22;4354;49.832;10.746;2023-03-31T03:41:46;8.50;99.90
8633;DHT22;4354;49.832;10.746;2023-03-31T03:44:13;8.50;99.90
8633;DHT22;4354;49.832;10.746;2023-03-31T03:46:48;8.50;99.90
8633;DHT22;4354;49.832;10.746;2023-03-31T03:49:16;8.40;99.90
8633;DHT22;4354;49.832;10.746;2023-03-31T03:51:46;8.40;99.90
8633;DHT22;4354;49.832;10.746;2023-03-31T03:54:13;8.50;99.90
8633;DHT22;4354;49.832;10.746;2023-03-31T03:56:40;8.50;99.90
8633;DHT22;4354;49.832;10.746;2023-03-31T03:59:07;8.50;99.90
8633;DHT22;4354;49.832;10.746;2023-03-31T04:01:37;8.50;99.90
8633;DHT22;4354;49.832;10.746;2023-03-31T04:04:07;8.50;99.90
8633;DHT22;4354;49.832;10.746;2023-03-31T04:06:38;8.50;99.90
8633;DHT22;4354;49.832;10.746;2023-03-31T04:09:09;8.50;99.90
8633;DHT22;4354;49.832;10.746;2023-03-31T04:11:50;8.50;99.90
8633;DHT22;4354;49.832;10.746;2023-03-31T04:14:23;8.60;99.90
8633;DHT22;4354;49.832;10.746;2023-03-31T04:16:54;8.60;99.90
8633;DHT22;4354;49.832;10.746;2023-03-31T04:19:29;8.60;99.90
8633;DHT22;4354;49.832;10.746;2023-03-31T04:22:05;8.60;99.90
8633;DHT22;4354;49.832;10.746;2023-03-31T04:24:37;8.80;99.90
8633;DHT22;4354;49.832;10.746;2023-03-31T04:27:07;8.80;99.90
8633;DHT22;4354;49.832;10.746;2023-03-31T04:29:42;8.90;99.90
8633;DHT22;4354;49.832;10.746;2023-03-31T04:32:14;8.90;99.90
8633;DHT22;4354;49.832;10.746;2023-03-31T04:34:51;9.00;99.90
8633;DHT22;4354;49.832;10.746;2023-03-31T04:37:28;9.10;99.90
8633;DHT22;4354;49.832;10.746;2023-03-31T04:40:06;9.10;99.90
8633;DHT22;4354;49.832;10.746;2023-03-31T04:42:34;9.10;99.90
8633;DHT22;4354;49.832;10.746;2023-03-31T04:45:02;9.20;99.90
8633;DHT22;4354;49.832;10.746;2023-03-31T04:47:38;9.10;99.90
8633;DHT22;4354;49.832;10.746;2023-03-31T04:50:06;9.20;99.90
8633;DHT22;4354;49.832;10.746;2023-03-31T04:52:34;9.20;99.90
8633;DHT22;4354;49.832;10.746;2023-03-31T04:55:04;9.20;99.90
8633;DHT22;4354;49.832;10.746;2023-03-31T04:57:31;9.20;99.90
8633;DHT22;4354;49.832;10.746;2023-03-31T04:59:59;9.20;99.90
8633;DHT22;4354;49.832;10.746;2023-03-31T05:02:26;9.20;99.90
8633;DHT22;4354;49.832;10.746;2023-03-31T05:05:04;9.20;99.90
8633;DHT22;4354;49.832;10.746;2023-03-31T05:07:32;9.10;99.90
8633;DHT22;4354;49.832;10.746;2023-03-31T05:09:58;9.10;99.90
8633;DHT22;4354;49.832;10.746;2023-03-31T05:12:37;9.10;99.90
8633;DHT22;4354;49.832;10.746;2023-03-31T05:15:05;9.10;99.90
8633;DHT22;4354;49.832;10.746;2023-03-31T05:17:34;9.10;99.90
8633;DHT22;4354;49.832;10.746;2023-03-31T05:20:14;9.10;99.90
8633;DHT22;4354;49.832;10.746;2023-03-31T05:22:46;9.00;99.90
8633;DHT22;4354;49.832;10.746;2023-03-31T05:25:13;9.00;99.90
8633;DHT22;4354;49.832;10.746;2023-03-31T05:27:50;9.00;99.90
8633;DHT22;4354;49.832;10.746;2023-03-31T05:30:17;9.00;99.90
8633;DHT22;4354;49.832;10.746;2023-03-31T05:32:50;9.00;99.90
8633;DHT22;4354;49.832;10.746;2023-03-31T05:35:18;8.90;99.90
8633;DHT22;4354;49.832;10.746;2023-03-31T05:37:48;9.00;99.90
8633;DHT22;4354;49.832;10.746;2023-03-31T05:40:17;9.00;99.90
8633;DHT22;4354;49.832;10.746;2023-03-31T05:42:44;9.00;99.90
8633;DHT22;4354;49.832;10.746;2023-03-31T05:45:11;9.00;99.90
8633;DHT22;4354;49.832;10.746;2023-03-31T05:47:38;9.10;99.90
8633;DHT22;4354;49.832;10.746;2023-03-31T05:50:06;9.10;99.90
8633;DHT22;4354;49.832;10.746;2023-03-31T05:52:34;9.10;99.90
8633;DHT22;4354;49.832;10.746;2023-03-31T05:55:02;9.30;99.90
8633;DHT22;4354;49.832;10.746;2023-03-31T05:57:33;9.30;99.90
8633;DHT22;4354;49.832;10.746;2023-03-31T06:00:21;9.20;99.90
8633;DHT22;4354;49.832;10.746;2023-03-31T06:02:50;9.20;99.90
8633;DHT22;4354;49.832;10.746;2023-03-31T06:05:24;9.20;99.90
8633;DHT22;4354;49.832;10.746;2023-03-31T06:07:56;9.20;99.90
8633;DHT22;4354;49.832;10.746;2023-03-31T06:10:23;9.20;99.90
8633;DHT22;4354;49.832;10.746;2023-03-31T06:12:53;9.20;99.90
8633;DHT22;4354;49.832;10.746;2023-03-31T06:15:20;9.30;99.90
8633;DHT22;4354;49.832;10.746;2023-03-31T06:17:47;9.30;99.90
8633;DHT22;4354;49.832;10.746;2023-03-31T06:20:14;9.30;99.90
8633;DHT22;4354;49.832;10.746;2023-03-31T06:22:54;9.30;99.90
8633;DHT22;4354;49.832;10.746;2023-03-31T06:25:21;9.40;99.90
8633;DHT22;4354;49.832;10.746;2023-03-31T06:27:47;9.40;99.90
8633;DHT22;4354;49.832;10.746;2023-03-31T06:30:14;9.40;99.90
8633;DHT22;4354;49.832;10.746;2023-03-31T06:32:41;9.40;99.90
8633;DHT22;4354;49.832;10.746;2023-03-31T06:35:13;9.30;99.90
8633;DHT22;4354;49.832;10.746;2023-03-31T06:37:39;9.30;99.90
8633;DHT22;4354;49.832;10.746;2023-03-31T06:40:08;9.30;99.90
8633;DHT22;4354;49.832;10.746;2023-03-31T06:42:35;9.30;99.90
8633;DHT22;4354;49.832;10.746;2023-03-31T06:45:02;9.20;99.90
8633;DHT22;4354;49.832;10.746;2023-03-31T06:47:29;9.20;99.90
8633;DHT22;4354;49.832;10.746;2023-03-31T06:49:58;9.20;99.90
8633;DHT22;4354;49.832;10.746;2023-03-31T06:52:29;9.20;99.90
8633;DHT22;4354;49.832;10.746;2023-03-31T06:54:56;9.20;99.90
8633;DHT22;4354;49.832;10.746;2023-03-31T06:57:23;9.20;99.90
8633;DHT22;4354;49.832;10.746;2023-03-31T06:59:56;9.20;99.90
8633;DHT22;4354;49.832;10.746;2023-03-31T07:02:26;9.10;99.90
8633;DHT22;4354;49.832;10.746;2023-03-31T07:04:56;9.00;99.90
8633;DHT22;4354;49.832;10.746;2023-03-31T07:07:26;9.10;99.90
8633;DHT22;4354;49.832;10.746;2023-03-31T07:10:00;9.00;99.90
8633;DHT22;4354;49.832;10.746;2023-03-31T07:12:37;9.00;99.90
8633;DHT22;4354;49.832;10.746;2023-03-31T07:15:10;8.90;99.90
8633;DHT22;4354;49.832;10.746;2023-03-31T07:17:37;8.90;99.90
8633;DHT22;4354;49.832;10.746;2023-03-31T07:20:12;8.90;99.90
8633;DHT22;4354;49.832;10.746;2023-03-31T07:22:47;8.80;99.90
8633;DHT22;4354;49.832;10.746;2023-03-31T07:25:18;8.80;99.90
8633;DHT22;4354;49.832;10.746;2023-03-31T07:27:50;8.90;99.90
8633;DHT22;4354;49.832;10.746;2023-03-31T07:30:18;8.90;99.90
8633;DHT22;4354;49.832;10.746;2023-03-31T07:32:47;8.90;99.90
8633;DHT22;4354;49.832;10.746;2023-03-31T07:35:19;9.00;99.90
8633;DHT22;4354;49.832;10.746;2023-03-31T07:37:57;9.00;99.90
8633;DHT22;4354;49.832;10.746;2023-03-31T07:40:33;9.00;99.90
8633;DHT22;4354;49.832;10.746;2023-03-31T07:43:09;9.00;99.90
8633;DHT22;4354;49.832;10.746;2023-03-31T07:45:42;9.00;99.90
8633;DHT22;4354;49.832;10.746;2023-03-31T07:48:09;9.10;99.90
8633;DHT22;4354;49.832;10.746;2023-03-31T07:50:39;9.10;99.90
8633;DHT22;4354;49.832;10.746;2023-03-31T07:53:06;9.00;99.90
8633;DHT22;4354;49.832;10.746;2023-03-31T07:55:33;9.00;99.90
8633;DHT22;4354;49.832;10.746;2023-03-31T07:58:03;9.00;99.90
8633;DHT22;4354;49.832;10.746;2023-03-31T08:00:30;9.00;99.90
8633;DHT22;4354;49.832;10.746;2023-03-31T08:02:58;9.00;99.90
8633;DHT22;4354;49.832;10.746;2023-03-31T08:05:26;8.90;99.90
8633;DHT22;4354;49.832;10.746;2023-03-31T08:07:53;9.00;99.90
8633;DHT22;4354;49.832;10.746;2023-03-31T08:10:23;8.90;99.90
8633;DHT22;4354;49.832;10.746;2023-03-31T08:12:58;8.90;99.90
8633;DHT22;4354;49.832;10.746;2023-03-31T08:15:29;8.90;99.90
8633;DHT22;4354;49.832;10.746;2023-03-31T08:17:56;8.90;99.90
8633;DHT22;4354;49.832;10.746;2023-03-31T08:20:25;8.90;99.90
8633;DHT22;4354;49.832;10.746;2023-03-31T08:22:53;8.90;99.90
8633;DHT22;4354;49.832;10.746;2023-03-31T08:25:20;8.90;99.90
8633;DHT22;4354;49.832;10.746;2023-03-31T08:27:50;8.80;99.90
8633;DHT22;4354;49.832;10.746;2023-03-31T08:30:18;8.90;99.90
8633;DHT22;4354;49.832;10.746;2023-03-31T08:32:48;8.90;99.90
8633;DHT22;4354;49.832;10.746;2023-03-31T08:35:25;8.90;99.90
8633;DHT22;4354;49.832;10.746;2023-03-31T08:37:59;8.90;99.90
8633;DHT22;4354;49.832;10.746;2023-03-31T08:40:29;8.90;99.90
8633;DHT22;4354;49.832;10.746;2023-03-31T08:43:26;9.00;99.90
8633;DHT22;4354;49.832;10.746;2023-03-31T08:45:57;9.00;99.90
8633;DHT22;4354;49.832;10.746;2023-03-31T08:48:38;9.00;99.90
8633;DHT22;4354;49.832;10.746;2023-03-31T08:51:21;9.10;99.90
8633;DHT22;4354;49.832;10.746;2023-03-31T08:54:02;9.20;99.90
8633;DHT22;4354;49.832;10.746;2023-03-31T08:56:40;9.30;99.90
8633;DHT22;4354;49.832;10.746;2023-03-31T08:59:26;9.40;99.90
8633;DHT22;4354;49.832;10.746;2023-03-31T09:05:05;9.70;99.90
8633;DHT22;4354;49.832;10.746;2023-03-31T09:08:10;9.90;99.90
8633;DHT22;4354;49.832;10.746;2023-03-31T09:16:14;10.60;99.90
8633;DHT22;4354;49.832;10.746;2023-03-31T09:18:45;10.90;99.90
8633;DHT22;4354;49.832;10.746;2023-03-31T09:21:37;10.90;99.90
8633;DHT22;4354;49.832;10.746;2023-03-31T09:24:49;10.70;99.90
8633;DHT22;4354;49.832;10.746;2023-03-31T09:27:19;10.40;99.90
8633;DHT22;4354;49.832;10.746;2023-03-31T09:32:38;10.10;99.90
8633;DHT22;4354;49.832;10.746;2023-03-31T09:35:22;10.20;99.90
8633;DHT22;4354;49.832;10.746;2023-03-31T09:37:59;10.20;99.90
8633;DHT22;4354;49.832;10.746;2023-03-31T09:40:36;10.40;99.90
8633;DHT22;4354;49.832;10.746;2023-03-31T09:43:06;10.70;99.90
8633;DHT22;4354;49.832;10.746;2023-03-31T09:45:36;11.10;99.90
8633;DHT22;4354;49.832;10.746;2023-03-31T09:48:11;11.50;99.90
8633;DHT22;4354;49.832;10.746;2023-03-31T09:50:59;11.70;99.90
8633;DHT22;4354;49.832;10.746;2023-03-31T09:53:55;11.90;99.90
8633;DHT22;4354;49.832;10.746;2023-03-31T09:59:18;12.50;99.90
8633;DHT22;4354;49.832;10.746;2023-03-31T10:01:52;12.30;99.90
8633;DHT22;4354;49.832;10.746;2023-03-31T10:04:29;12.10;99.90
8633;DHT22;4354;49.832;10.746;2023-03-31T10:07:03;11.90;99.90
8633;DHT22;4354;49.832;10.746;2023-03-31T10:09:32;11.10;99.90
8633;DHT22;4354;49.832;10.746;2023-03-31T10:12:06;10.20;99.90
8633;DHT22;4354;49.832;10.746;2023-03-31T10:14:48;9.60;99.90
8633;DHT22;4354;49.832;10.746;2023-03-31T10:17:26;9.20;99.90
8633;DHT22;4354;49.832;10.746;2023-03-31T10:19:57;8.90;99.90
8633;DHT22;4354;49.832;10.746;2023-03-31T10:22:29;8.80;99.90
8633;DHT22;4354;49.832;10.746;2023-03-31T10:25:19;8.70;99.90
8633;DHT22;4354;49.832;10.746;2023-03-31T10:27:51;8.70;99.90
8633;DHT22;4354;49.832;10.746;2023-03-31T10:30:22;8.70;99.90
8633;DHT22;4354;49.832;10.746;2023-03-31T10:32:49;8.70;99.90
8633;DHT22;4354;49.832;10.746;2023-03-31T10:35:24;8.70;99.90
8633;DHT22;4354;49.832;10.746;2023-03-31T10:37:56;8.70;99.90
8633;DHT22;4354;49.832;10.746;2023-03-31T10:40:26;8.60;99.90
8633;DHT22;4354;49.832;10.746;2023-03-31T10:43:11;8.60;99.90
8633;DHT22;4354;49.832;10.746;2023-03-31T10:45:58;8.60;99.90
8633;DHT22;4354;49.832;10.746;2023-03-31T10:48:33;8.60;99.90
8633;DHT22;4354;49.832;10.746;2023-03-31T10:51:20;8.60;99.90
8633;DHT22;4354;49.832;10.746;2023-03-31T10:53:48;8.60;99.90
8633;DHT22;4354;49.832;10.746;2023-03-31T10:56:33;8.60;99.90
8633;DHT22;4354;49.832;10.746;2023-03-31T10:59:27;8.80;99.90
8633;DHT22;4354;49.832;10.746;2023-03-31T11:08:12;8.80;99.90
8633;DHT22;4354;49.832;10.746;2023-03-31T11:13:27;8.70;99.90
8633;DHT22;4354;49.832;10.746;2023-03-31T11:39:09;8.60;99.90
8633;DHT22;4354;49.832;10.746;2023-03-31T11:41:48;8.70;99.90
8633;DHT22;4354;49.832;10.746;2023-03-31T11:44:18;8.80;99.90
8633;DHT22;4354;49.832;10.746;2023-03-31T11:47:05;9.00;99.90
8633;DHT22;4354;49.832;10.746;2023-03-31T11:49:38;9.20;99.90
8633;DHT22;4354;49.832;10.746;2023-03-31T11:52:21;9.30;99.90
8633;DHT22;4354;49.832;10.746;2023-03-31T11:54:55;9.20;99.90
8633;DHT22;4354;49.832;10.746;2023-03-31T12:00:08;9.20;99.90
8633;DHT22;4354;49.832;10.746;2023-03-31T12:05:26;9.40;99.90
8633;DHT22;4354;49.832;10.746;2023-03-31T12:10:46;9.70;99.90
8633;DHT22;4354;49.832;10.746;2023-03-31T12:13:38;9.80;99.90
8633;DHT22;4354;49.832;10.746;2023-03-31T12:18:56;10.20;99.90
8633;DHT22;4354;49.832;10.746;2023-03-31T12:21:25;10.40;99.90
8633;DHT22;4354;49.832;10.746;2023-03-31T12:23:52;10.80;99.90
8633;DHT22;4354;49.832;10.746;2023-03-31T12:29:00;11.20;99.90
8633;DHT22;4354;49.832;10.746;2023-03-31T12:31:31;11.30;99.90
8633;DHT22;4354;49.832;10.746;2023-03-31T12:34:05;11.30;99.90
8633;DHT22;4354;49.832;10.746;2023-03-31T12:49:53;12.30;99.90
8633;DHT22;4354;49.832;10.746;2023-03-31T12:55:27;11.10;99.90
8633;DHT22;4354;49.832;10.746;2023-03-31T13:01:23;10.20;99.90
8633;DHT22;4354;49.832;10.746;2023-03-31T13:08:59;9.60;99.90
8633;DHT22;4354;49.832;10.746;2023-03-31T13:14:24;9.70;99.90
8633;DHT22;4354;49.832;10.746;2023-03-31T13:17:09;9.80;99.90
8633;DHT22;4354;49.832;10.746;2023-03-31T13:19:39;10.00;99.90
8633;DHT22;4354;49.832;10.746;2023-03-31T13:22:30;10.40;99.90
8633;DHT22;4354;49.832;10.746;2023-03-31T13:27:53;11.00;99.90
8633;DHT22;4354;49.832;10.746;2023-03-31T13:42:17;12.80;99.90
8633;DHT22;4354;49.832;10.746;2023-03-31T13:45:15;13.40;99.90
8633;DHT22;4354;49.832;10.746;2023-03-31T13:56:25;15.20;99.90
8633;DHT22;4354;49.832;10.746;2023-03-31T13:59:17;15.00;99.90
8633;DHT22;4354;49.832;10.746;2023-03-31T14:05:04;15.60;99.90
8633;DHT22;4354;49.832;10.746;2023-03-31T14:07:54;15.60;99.90
8633;DHT22;4354;49.832;10.746;2023-03-31T14:10:41;15.50;99.90
8633;DHT22;4354;49.832;10.746;2023-03-31T14:13:13;15.30;99.90
8633;DHT22;4354;49.832;10.746;2023-03-31T14:16:01;15.20;99.90
8633;DHT22;4354;49.832;10.746;2023-03-31T14:18:33;15.20;99.90
8633;DHT22;4354;49.832;10.746;2023-03-31T14:21:11;15.10;99.90
8633;DHT22;4354;49.832;10.746;2023-03-31T14:34:55;14.50;99.90
8633;DHT22;4354;49.832;10.746;2023-03-31T14:37:25;14.30;99.90
8633;DHT22;4354;49.832;10.746;2023-03-31T14:39:54;14.10;99.90
8633;DHT22;4354;49.832;10.746;2023-03-31T14:42:34;13.90;99.90
8633;DHT22;4354;49.832;10.746;2023-03-31T14:45:06;13.70;99.90
8633;DHT22;4354;49.832;10.746;2023-03-31T14:47:35;13.70;99.90
8633;DHT22;4354;49.832;10.746;2023-03-31T14:50:12;13.60;99.90
8633;DHT22;4354;49.832;10.746;2023-03-31T14:52:49;13.80;99.90
8633;DHT22;4354;49.832;10.746;2023-03-31T14:55:19;14.30;99.90
8633;DHT22;4354;49.832;10.746;2023-03-31T14:57:53;14.50;99.90
8633;DHT22;4354;49.832;10.746;2023-03-31T15:00:27;14.70;99.90
8633;DHT22;4354;49.832;10.746;2023-03-31T15:02:56;14.70;99.90
8633;DHT22;4354;49.832;10.746;2023-03-31T15:05:35;14.80;99.90
8633;DHT22;4354;49.832;10.746;2023-03-31T15:08:09;14.70;99.90
8633;DHT22;4354;49.832;10.746;2023-03-31T15:10:41;14.60;99.90
8633;DHT22;4354;49.832;10.746;2023-03-31T15:13:10;14.50;99.90
8633;DHT22;4354;49.832;10.746;2023-03-31T15:15:38;14.30;99.90
8633;DHT22;4354;49.832;10.746;2023-03-31T15:18:05;14.20;99.90
8633;DHT22;4354;49.832;10.746;2023-03-31T15:20:36;14.00;99.90
8633;DHT22;4354;49.832;10.746;2023-03-31T15:23:23;13.80;99.90
8633;DHT22;4354;49.832;10.746;2023-03-31T15:25:58;13.60;99.90
8633;DHT22;4354;49.832;10.746;2023-03-31T15:28:31;13.40;99.90
8633;DHT22;4354;49.832;10.746;2023-03-31T15:30:59;13.30;99.90
8633;DHT22;4354;49.832;10.746;2023-03-31T15:33:36;13.10;99.90
8633;DHT22;4354;49.832;10.746;2023-03-31T15:36:09;12.90;99.90
8633;DHT22;4354;49.832;10.746;2023-03-31T15:38:37;12.90;99.90
8633;DHT22;4354;49.832;10.746;2023-03-31T15:41:15;12.80;99.90
8633;DHT22;4354;49.832;10.746;2023-03-31T15:44:26;12.80;99.90
8633;DHT22;4354;49.832;10.746;2023-03-31T15:46:59;12.70;99.90
8633;DHT22;4354;49.832;10.746;2023-03-31T15:49:27;12.60;99.90
8633;DHT22;4354;49.832;10.746;2023-03-31T15:51:55;12.70;99.90
8633;DHT22;4354;49.832;10.746;2023-03-31T15:54:33;12.90;99.90
8633;DHT22;4354;49.832;10.746;2023-03-31T15:57:04;13.00;99.90
8633;DHT22;4354;49.832;10.746;2023-03-31T15:59:48;13.10;99.90
8633;DHT22;4354;49.832;10.746;2023-03-31T16:02:22;13.20;99.90
8633;DHT22;4354;49.832;10.746;2023-03-31T16:04:54;13.30;99.90
8633;DHT22;4354;49.832;10.746;2023-03-31T16:07:35;13.20;99.90
8633;DHT22;4354;49.832;10.746;2023-03-31T16:10:09;13.10;99.90
8633;DHT22;4354;49.832;10.746;2023-03-31T16:12:48;13.00;99.90
8633;DHT22;4354;49.832;10.746;2023-03-31T16:15:20;12.90;99.90
8633;DHT22;4354;49.832;10.746;2023-03-31T16:17:53;12.90;99.90
8633;DHT22;4354;49.832;10.746;2023-03-31T16:20:32;12.90;99.90
8633;DHT22;4354;49.832;10.746;2023-03-31T16:23:13;12.90;99.90
8633;DHT22;4354;49.832;10.746;2023-03-31T16:25:41;12.90;99.90
8633;DHT22;4354;49.832;10.746;2023-03-31T16:28:13;12.90;99.90
8633;DHT22;4354;49.832;10.746;2023-03-31T16:30:42;12.90;99.90
8633;DHT22;4354;49.832;10.746;2023-03-31T16:33:14;12.80;99.90
8633;DHT22;4354;49.832;10.746;2023-03-31T16:35:49;12.70;99.90
8633;DHT22;4354;49.832;10.746;2023-03-31T16:38:20;12.50;99.90
8633;DHT22;4354;49.832;10.746;2023-03-31T16:40:50;12.30;99.90
8633;DHT22;4354;49.832;10.746;2023-03-31T16:43:24;12.20;99.90
8633;DHT22;4354;49.832;10.746;2023-03-31T16:45:57;12.10;99.90
8633;DHT22;4354;49.832;10.746;2023-03-31T16:48:26;12.00;99.90
8633;DHT22;4354;49.832;10.746;2023-03-31T16:50:55;12.00;99.90
8633;DHT22;4354;49.832;10.746;2023-03-31T16:53:28;12.00;99.90
8633;DHT22;4354;49.832;10.746;2023-03-31T16:55:57;12.00;99.90
8633;DHT22;4354;49.832;10.746;2023-03-31T16:58:24;11.90;99.90
8633;DHT22;4354;49.832;10.746;2023-03-31T17:00:52;11.90;99.90
8633;DHT22;4354;49.832;10.746;2023-03-31T17:03:20;11.90;99.90
8633;DHT22;4354;49.832;10.746;2023-03-31T17:05:49;11.80;99.90
8633;DHT22;4354;49.832;10.746;2023-03-31T17:08:20;11.70;99.90
8633;DHT22;4354;49.832;10.746;2023-03-31T17:11:08;11.60;99.90
8633;DHT22;4354;49.832;10.746;2023-03-31T17:13:38;11.60;99.90
8633;DHT22;4354;49.832;10.746;2023-03-31T17:16:05;11.50;99.90
8633;DHT22;4354;49.832;10.746;2023-03-31T17:18:52;11.40;99.90
8633;DHT22;4354;49.832;10.746;2023-03-31T17:21:20;11.30;99.90
8633;DHT22;4354;49.832;10.746;2023-03-31T17:23:47;11.20;99.90
8633;DHT22;4354;49.832;10.746;2023-03-31T17:26:15;11.10;99.90
8633;DHT22;4354;49.832;10.746;2023-03-31T17:28:44;11.10;99.90
8633;DHT22;4354;49.832;10.746;2023-03-31T17:31:18;11.00;99.90
8633;DHT22;4354;49.832;10.746;2023-03-31T17:33:45;11.00;99.90
8633;DHT22;4354;49.832;10.746;2023-03-31T17:36:13;10.80;99.90
8633;DHT22;4354;49.832;10.746;2023-03-31T17:38:41;10.70;99.90
8633;DHT22;4354;49.832;10.746;2023-03-31T17:41:10;10.40;99.90
8633;DHT22;4354;49.832;10.746;2023-03-31T17:43:38;10.30;99.90
8633;DHT22;4354;49.832;10.746;2023-03-31T17:46:08;10.20;99.90
8633;DHT22;4354;49.832;10.746;2023-03-31T17:48:40;10.10;99.90
8633;DHT22;4354;49.832;10.746;2023-03-31T17:51:10;9.90;99.90
8633;DHT22;4354;49.832;10.746;2023-03-31T17:53:43;9.90;99.90
8633;DHT22;4354;49.832;10.746;2023-03-31T17:56:12;9.80;99.90
8633;DHT22;4354;49.832;10.746;2023-03-31T17:58:40;9.80;99.90
8633;DHT22;4354;49.832;10.746;2023-03-31T18:01:09;9.80;99.90
8633;DHT22;4354;49.832;10.746;2023-03-31T18:03:36;9.80;99.90
8633;DHT22;4354;49.832;10.746;2023-03-31T18:06:07;9.70;99.90
8633;DHT22;4354;49.832;10.746;2023-03-31T18:08:37;9.70;99.90
8633;DHT22;4354;49.832;10.746;2023-03-31T18:11:06;9.80;99.90
8633;DHT22;4354;49.832;10.746;2023-03-31T18:13:34;9.80;99.90
8633;DHT22;4354;49.832;10.746;2023-03-31T18:16:02;9.70;99.90
8633;DHT22;4354;49.832;10.746;2023-03-31T18:18:30;9.70;99.90
8633;DHT22;4354;49.832;10.746;2023-03-31T18:21:02;9.60;99.90
8633;DHT22;4354;49.832;10.746;2023-03-31T18:23:29;9.50;99.90
8633;DHT22;4354;49.832;10.746;2023-03-31T18:25:56;9.40;99.90
8633;DHT22;4354;49.832;10.746;2023-03-31T18:28:22;9.40;99.90
8633;DHT22;4354;49.832;10.746;2023-03-31T18:30:49;9.40;99.90
8633;DHT22;4354;49.832;10.746;2023-03-31T18:33:16;9.40;99.90
8633;DHT22;4354;49.832;10.746;2023-03-31T18:35:43;9.40;99.90
8633;DHT22;4354;49.832;10.746;2023-03-31T18:38:10;9.50;99.90
8633;DHT22;4354;49.832;10.746;2023-03-31T18:40:37;9.60;99.90
8633;DHT22;4354;49.832;10.746;2023-03-31T18:43:04;9.60;99.90
8633;DHT22;4354;49.832;10.746;2023-03-31T18:45:31;9.80;99.90
8633;DHT22;4354;49.832;10.746;2023-03-31T18:47:58;9.80;99.90
8633;DHT22;4354;49.832;10.746;2023-03-31T18:50:25;9.80;99.90
8633;DHT22;4354;49.832;10.746;2023-03-31T18:52:52;9.80;99.90
8633;DHT22;4354;49.832;10.746;2023-03-31T18:55:21;9.90;99.90
8633;DHT22;4354;49.832;10.746;2023-03-31T18:57:48;9.90;99.90
8633;DHT22;4354;49.832;10.746;2023-03-31T19:00:16;9.90;99.90
8633;DHT22;4354;49.832;10.746;2023-03-31T19:02:43;9.90;99.90
8633;DHT22;4354;49.832;10.746;2023-03-31T19:05:10;9.90;99.90
8633;DHT22;4354;49.832;10.746;2023-03-31T19:07:37;9.90;99.90
8633;DHT22;4354;49.832;10.746;2023-03-31T19:10:05;9.80;99.90
8633;DHT22;4354;49.832;10.746;2023-03-31T19:12:32;9.90;99.90
8633;DHT22;4354;49.832;10.746;2023-03-31T19:14:59;9.90;99.90
8633;DHT22;4354;49.832;10.746;2023-03-31T19:17:26;9.90;99.90
8633;DHT22;4354;49.832;10.746;2023-03-31T19:19:53;9.90;99.90
8633;DHT22;4354;49.832;10.746;2023-03-31T19:22:19;9.90;99.90
8633;DHT22;4354;49.832;10.746;2023-03-31T19:24:46;10.00;99.90
8633;DHT22;4354;49.832;10.746;2023-03-31T19:27:13;10.00;99.90
8633;DHT22;4354;49.832;10.746;2023-03-31T19:29:40;10.00;99.90